METAR AND TAF INFORMATION
METAR FOR LEJR
ADDS - METARS form results

(0317 UTC 26 February 2020)
Data provider http://aviationweather.gov/metar/data/
 
METAR text: LEJR 260300Z AUTO VRB02KT 6000 NCD 06/06 Q1024
Conditions at: LEJR (JEREZ (CIV/MIL) , ES) observed 0300 UTC 26 February 2020
Temperature: 6.0°C (43°F)
Dewpoint: 6.0°C (43°F) [RH = 100%]
Pressure (altimeter): 30.24 inches Hg (1024.0 mb)
Winds: variable direction winds at 2 MPH (2 knots; 1.0 m/s)
Visibility: 4 miles ( 6 km)
Ceiling: at least 12,000 feet AGL
Clouds: sky clear below 12,000 feet AGL
Weather: no significant weather observed at this time

METAR text: LEJR 260230Z AUTO VRB02KT 6000 NSC 07/06 Q1024
Conditions at: LEJR (JEREZ (CIV/MIL) , ES) observed 0230 UTC 26 February 2020
Temperature: 7.0°C (45°F)
Dewpoint: 6.0°C (43°F) [RH = 93%]
Pressure (altimeter): 30.24 inches Hg (1024.0 mb)
Winds: variable direction winds at 2 MPH (2 knots; 1.0 m/s)
Visibility: 4 miles ( 6 km)
Ceiling: at least 12,000 feet AGL
Clouds: sky clear below 12,000 feet AGL
Weather: no significant weather observed at this time

Forecast for: LEJR (JEREZ (CIV/MIL) , ES)
Text: TAF LEJR 252300Z 2600/2624 32006KT CAVOK TX20/2615Z TN05/2607Z
Forecast period: 0000 UTC 26 February 2020 to 0000 UTC 27 February 2020
Forecast type: FROM: standard forecast or significant change
Winds: from the NW (320 degrees) at 7 MPH (6 knots; 3.1 m/s)
Visibility: 6 or more miles 10+ km)
Ceiling: unknown
Clouds: missing
Weather: no significant weather forecast for this period
Text: PROB40
Forecast period: 0400 to 0900 UTC 26 February 2020
Forecast type: TEMPORARY: The following changes expected for less than half the time period
Visibility: 2.49 miles (4.01 km)
Ceiling: unknown
Clouds: missing
Weather: BR  (mist)

 AIRPORT MAP

 RUNWAY INFORMATION
Runway 02 Runway length 7546 ft Runway width 148 ft
Runway elevation 68 ft Runway displaced threshold 0 ft Runway heading 21
Runway 20 Runway length 7546 ft Runway width 148 ft
Runway elevation 93 ft Runway displaced threshold 0 ft Runway heading 201

 AIRPORT FREQUENCIES
Type APP Name APP Frequency 128.5 MHZ
Type GND Name GND Frequency 121.6 MHZ
Type TWR Name TWR Frequency 118.55 MHZ

 AIRPORT NEAR NAVIGATION AIDS
Type NDB Name Jerez Frequency 433 KHZ
Type VOR-DME Name Jerez Frequency 113000 KHZ



Powered by Virtual Airlines Manager [v2.6.2]